Time;durP1;ratioP1;P1;durP2;ratioP2;P2;SDS_P1;SDS_P2;PMS_P1;PMS_P2;Temp;Humidity;BMP_temperature;BMP_pressure;BME280_temperature;BME280_humidity;BME280_pressure;Samples;Min_cycle;Max_cycle;Signal;HPM_P1;HPM_P2
2022/12/25 00:02:01;;;;;;;1999.90;999.90;;;;;;;8.20;100.00;94835.97;5014639;28;20257;-64
2022/12/25 00:04:26;;;;;;;1999.90;999.90;;;;;;;8.18;100.00;94816.56;5014883;28;20198;-65
2022/12/25 00:06:52;;;;;;;1999.90;999.90;;;;;;;8.11;100.00;94795.66;5014856;28;20239;-63
2022/12/25 00:09:17;;;;;;;1999.90;999.90;;;;;;;8.00;100.00;94778.66;5014930;28;20182;-64
2022/12/25 00:11:43;;;;;;;1999.90;999.90;;;;;;;7.99;100.00;94760.81;5014849;28;20183;-63
2022/12/25 00:14:09;;;;;;;1999.90;999.90;;;;;;;7.88;100.00;94749.25;5014860;28;20228;-64
2022/12/25 00:16:34;;;;;;;1999.90;999.90;;;;;;;7.89;100.00;94742.63;5014643;28;20199;-68
2022/12/25 00:19:00;;;;;;;1999.90;999.90;;;;;;;7.78;100.00;94714.78;5014475;28;20255;-60
2022/12/25 00:21:26;;;;;;;1999.90;999.90;;;;;;;7.74;100.00;94695.00;5015155;28;20231;-65
2022/12/25 00:23:56;;;;;;;1999.90;999.90;;;;;;;7.74;100.00;94678.72;5014938;28;20181;-66
2022/12/25 00:26:22;;;;;;;1999.90;999.90;;;;;;;7.67;100.00;94667.91;5014258;28;20185;-66
2022/12/25 00:28:57;;;;;;;1999.90;999.90;;;;;;;7.66;100.00;94650.06;5014275;28;20185;-66
2022/12/25 00:31:24;;;;;;;1999.90;999.90;;;;;;;7.67;100.00;94638.00;5015025;28;20250;-66
2022/12/25 00:33:50;;;;;;;1999.90;999.90;;;;;;;7.64;100.00;94632.59;5014944;28;20189;-66
2022/12/25 00:36:17;;;;;;;1999.90;999.90;;;;;;;7.70;100.00;94622.84;5014976;28;20205;-62
2022/12/25 00:38:44;;;;;;;1999.90;999.90;;;;;;;7.67;100.00;94613.56;5014420;28;20204;-60
2022/12/25 00:41:12;;;;;;;1999.90;999.90;;;;;;;7.61;100.00;94609.72;5013822;28;20178;-60
2022/12/25 00:43:40;;;;;;;1999.90;999.90;;;;;;;7.66;100.00;94601.16;5014276;28;20180;-62
2022/12/25 00:46:07;;;;;;;1999.90;999.90;;;;;;;7.66;100.00;94595.72;5014304;28;20182;-60
2022/12/25 00:48:34;;;;;;;1999.90;999.90;;;;;;;7.65;100.00;94605.03;5014840;28;20228;-59
2022/12/25 00:51:02;;;;;;;1999.90;999.90;;;;;;;7.63;100.00;94596.53;5014525;28;20178;-59
2022/12/25 00:53:28;;;;;;;1999.90;999.90;;;;;;;7.62;100.00;94595.00;5014852;28;20182;-59
2022/12/25 00:55:59;;;;;;;1999.90;999.90;;;;;;;7.56;100.00;94596.59;5015117;28;20179;-65
2022/12/25 00:58:26;;;;;;;1999.90;999.90;;;;;;;7.56;100.00;94591.16;5014612;28;20174;-63
2022/12/25 01:00:51;;;;;;;1999.90;999.90;;;;;;;7.53;100.00;94581.09;5014251;28;20177;-62
2022/12/25 01:03:17;;;;;;;1999.90;999.90;;;;;;;7.51;100.00;94578.03;5014000;28;20209;-63
2022/12/25 01:05:52;;;;;;;1999.90;999.90;;;;;;;7.49;100.00;94564.06;5013951;28;20230;-63
2022/12/25 01:08:18;;;;;;;1999.90;999.90;;;;;;;7.52;100.00;94546.97;5014476;28;20268;-61
2022/12/25 01:10:43;;;;;;;1999.90;999.90;;;;;;;7.50;100.00;94546.59;5014164;28;20224;-62
2022/12/25 01:13:09;;;;;;;1999.90;999.90;;;;;;;7.45;100.00;94552.47;5013848;28;20182;-62
2022/12/25 01:15:35;;;;;;;1999.90;999.90;;;;;;;7.44;100.00;94556.38;5013787;28;20173;-65
2022/12/25 01:18:01;;;;;;;1999.90;999.90;;;;;;;7.40;100.00;94554.84;5013867;28;20178;-66
2022/12/25 01:20:26;;;;;;;1999.90;999.90;;;;;;;7.37;100.00;94561.88;5013630;28;20175;-64
2022/12/25 01:22:52;;;;;;;1999.90;999.90;;;;;;;7.37;100.00;94551.00;5013668;28;20205;-65
2022/12/25 01:25:17;;;;;;;1999.90;999.90;;;;;;;7.41;100.00;94545.53;5013851;28;20200;-65
2022/12/25 01:27:42;;;;;;;1999.90;999.90;;;;;;;7.43;100.00;94538.50;5013199;28;20189;-65
2022/12/25 01:30:08;;;;;;;1999.90;999.90;;;;;;;7.47;100.00;94531.09;5013625;28;20185;-62
2022/12/25 01:32:34;;;;;;;1999.90;999.90;;;;;;;7.48;100.00;94521.78;5013471;28;20174;-64
2022/12/25 01:34:59;;;;;;;1999.90;999.90;;;;;;;7.52;100.00;94510.88;5013528;28;20583;-61
2022/12/25 01:37:24;;;;;;;1999.90;999.90;;;;;;;7.53;100.00;94512.41;5014488;28;20178;-62
2022/12/25 01:39:50;;;;;;;1999.90;999.90;;;;;;;7.60;100.00;94513.13;5014062;28;20269;-62
2022/12/25 01:42:18;;;;;;;1999.90;999.90;;;;;;;7.65;100.00;94509.94;5014204;28;20198;-61
2022/12/25 01:44:46;;;;;;;1999.90;999.90;;;;;;;7.70;100.00;94509.50;5013403;28;20179;-62
2022/12/25 01:47:13;;;;;;;1999.90;999.90;;;;;;;7.73;100.00;94522.28;5014564;28;20165;-62
2022/12/25 01:49:41;;;;;;;1999.90;999.90;;;;;;;7.78;100.00;94529.19;5013541;28;20696;-61
2022/12/25 01:52:14;;;;;;;1999.90;999.90;;;;;;;7.79;100.00;94528.03;5013688;28;20180;-61
2022/12/25 01:54:49;;;;;;;1999.90;999.90;;;;;;;7.84;100.00;94544.69;5017668;28;20266;-62
2022/12/25 01:57:25;;;;;;;1999.90;999.90;;;;;;;7.87;100.00;94543.84;5018068;28;20189;-62
2022/12/25 01:59:52;;;;;;;1999.90;999.90;;;;;;;7.90;100.00;94555.88;5017870;28;20178;-62
2022/12/25 02:02:18;;;;;;;1999.90;999.90;;;;;;;7.94;100.00;94567.47;5017706;28;20202;-62
2022/12/25 02:04:54;;;;;;;1999.90;999.90;;;;;;;7.93;100.00;94577.56;5016987;28;20239;-62
2022/12/25 02:07:22;;;;;;;1999.90;999.90;;;;;;;7.92;100.00;94592.34;5017526;28;20262;-61
2022/12/25 02:09:49;;;;;;;1999.90;999.90;;;;;;;7.92;100.00;94586.91;5017077;28;20232;-69
2022/12/25 02:12:26;;;;;;;1999.90;999.90;;;;;;;7.90;100.00;94594.69;5017700;28;20171;-69
2022/12/25 02:14:55;;;;;;;1999.90;999.90;;;;;;;7.87;100.00;94603.63;5017531;28;20252;-69
2022/12/25 02:17:31;;;;;;;1999.90;999.90;;;;;;;7.84;100.00;94601.75;5018177;28;20178;-69
2022/12/25 02:20:15;;;;;;;1999.90;999.90;;;;;;;7.81;100.00;94605.28;5016607;28;20170;-69
2022/12/25 02:22:55;;;;;;;1999.90;999.90;;;;;;;7.80;100.00;94621.97;5017619;28;20209;-69
2022/12/25 02:25:28;;;;;;;1999.90;999.90;;;;;;;7.79;100.00;94621.19;5017509;28;20285;-70
2022/12/25 02:28:00;;;;;;;1999.90;999.90;;;;;;;7.78;100.00;94614.22;5016978;28;20212;-69
2022/12/25 02:30:27;;;;;;;1999.90;999.90;;;;;;;7.80;100.00;94616.53;5017265;28;20179;-64
2022/12/25 02:35:54;;;;;;;1999.90;999.90;;;;;;;7.76;100.00;94622.00;5017991;28;20169;-64
2022/12/25 02:38:29;;;;;;;1999.90;999.90;;;;;;;7.76;100.00;94632.13;5016959;28;20182;-64
2022/12/25 02:40:58;;;;;;;1999.90;999.90;;;;;;;7.75;100.00;94631.34;5016572;28;20174;-63
2022/12/25 03:11:29;;;;;;;1999.90;999.90;;;;;;;7.86;100.00;94588.50;5017381;28;20268;-64
2022/12/25 03:11:44;;;;;;;1999.90;999.90;;;;;;;7.86;100.00;94583.06;5016800;28;20183;-65
2022/12/25 03:16:56;;;;;;;1999.90;999.90;;;;;;;7.88;100.00;94580.75;5017215;28;20175;-64
2022/12/25 03:27:47;;;;;;;1999.90;999.90;;;;;;;7.92;100.00;94565.16;5017112;28;20190;-62
2022/12/25 03:33:07;;;;;;;1999.90;999.90;;;;;;;7.97;100.00;94564.69;5016888;28;20224;-63
2022/12/25 03:36:05;;;;;;;1999.90;999.90;;;;;;;7.98;100.00;94558.06;5015524;28;20192;-62
2022/12/25 04:36:39;;;;;;;1999.90;999.90;;;;;;;7.79;100.00;94599.47;5015543;28;20194;-62
2022/12/25 04:39:05;;;;;;;1999.90;999.90;;;;;;;7.82;100.00;94601.38;5014646;28;20171;-62
2022/12/25 04:41:30;;;;;;;1999.90;999.90;;;;;;;7.81;100.00;94597.13;5013979;28;20617;-62
2022/12/25 04:43:55;;;;;;;1999.90;999.90;;;;;;;7.85;100.00;94583.47;5014080;28;20551;-61
2022/12/25 04:46:21;;;;;;;1999.90;999.90;;;;;;;7.79;100.00;94577.72;5014855;28;20177;-62
2022/12/25 04:48:46;;;;;;;1999.90;999.90;;;;;;;7.78;100.00;94576.19;5014167;28;20270;-62
2022/12/25 04:51:17;;;;;;;1999.90;999.90;;;;;;;7.80;100.00;94562.97;5014629;28;20213;-61
2022/12/25 04:53:43;;;;;;;1999.90;999.90;;;;;;;7.78;100.00;94554.44;5014609;28;20197;-65
2022/12/25 04:56:09;;;;;;;1999.90;999.90;;;;;;;7.78;100.00;94540.84;5014869;28;20228;-63
2022/12/25 04:58:34;;;;;;;1999.90;999.90;;;;;;;7.75;100.00;94541.66;5014040;28;20182;-64
2022/12/25 05:01:01;;;;;;;1999.90;999.90;;;;;;;7.75;100.00;94525.34;5013935;28;20171;-63
2022/12/25 05:03:27;;;;;;;1999.90;999.90;;;;;;;7.70;100.00;94533.97;5013855;28;20214;-63
2022/12/25 05:05:53;;;;;;;1999.90;999.90;;;;;;;7.68;100.00;94535.56;5013785;28;20249;-62
2022/12/25 05:08:18;;;;;;;1999.90;999.90;;;;;;;7.72;100.00;94522.69;5014117;28;20167;-62
2022/12/25 05:10:43;;;;;;;1999.90;999.90;;;;;;;7.73;100.00;94524.22;5013929;28;20171;-64
2022/12/25 05:13:09;;;;;;;1999.90;999.90;;;;;;;7.69;100.00;94521.56;5013954;28;20182;-61
2022/12/25 05:15:51;;;;;;;1999.90;999.90;;;;;;;7.69;100.00;94502.53;5013624;28;20170;-61
2022/12/25 05:18:16;;;;;;;1999.90;999.90;;;;;;;7.68;100.00;94494.78;5014481;28;20177;-61
2022/12/25 05:20:42;;;;;;;1999.90;999.90;;;;;;;7.65;100.00;94479.31;5013794;28;20174;-62
2022/12/25 05:23:11;;;;;;;1999.90;999.90;;;;;;;7.65;100.00;94484.75;5014810;28;20201;-62
2022/12/25 05:25:39;;;;;;;1999.90;999.90;;;;;;;7.66;100.00;94484.34;5013892;28;20253;-62
2022/12/25 05:28:06;;;;;;;1999.90;999.90;;;;;;;7.67;100.00;94485.88;5013711;28;20175;-61
2022/12/25 05:30:32;;;;;;;1999.90;999.90;;;;;;;7.67;100.00;94477.72;5014369;28;20185;-69
2022/12/25 05:32:58;;;;;;;1999.90;999.90;;;;;;;7.68;100.00;94462.94;5013338;28;20233;-61
2022/12/25 05:35:23;;;;;;;1999.90;999.90;;;;;;;7.69;100.00;94467.22;5013864;28;20178;-62
2022/12/25 05:37:48;;;;;;;1999.90;999.90;;;;;;;7.70;100.00;94467.97;5013623;28;20193;-62
2022/12/25 05:40:14;;;;;;;1999.90;999.90;;;;;;;7.69;100.00;94469.94;5013657;28;20181;-61
2022/12/25 05:42:39;;;;;;;1999.90;999.90;;;;;;;7.66;100.00;94459.88;5013483;28;20197;-61
2022/12/25 05:45:05;;;;;;;1999.90;999.90;;;;;;;7.64;100.00;94462.22;5013399;28;20182;-62
2022/12/25 05:47:30;;;;;;;1999.90;999.90;;;;;;;7.65;100.00;94458.31;5013210;28;20225;-62
2022/12/25 05:49:55;;;;;;;1999.90;999.90;;;;;;;7.61;100.00;94471.19;5013829;28;20214;-62
2022/12/25 05:52:21;;;;;;;1999.90;999.90;;;;;;;7.60;100.00;94464.22;5013448;28;20179;-62
2022/12/25 05:54:46;;;;;;;1999.90;999.90;;;;;;;7.56;100.00;94444.47;5013674;28;20523;-61
2022/12/25 05:57:11;;;;;;;1999.90;999.90;;;;;;;7.58;100.00;94442.09;5013361;28;20178;-61
2022/12/25 05:59:37;;;;;;;1999.90;999.90;;;;;;;7.57;100.00;94429.72;5013659;28;20173;-61
2022/12/25 06:02:02;;;;;;;1999.90;999.90;;;;;;;7.56;100.00;94425.47;5013172;28;20205;-62
2022/12/25 06:04:28;;;;;;;1999.90;999.90;;;;;;;7.62;100.00;94432.00;5013201;28;20203;-61
2022/12/25 06:06:53;;;;;;;1999.90;999.90;;;;;;;7.58;100.00;94425.81;5013405;28;20210;-61
2022/12/25 06:09:18;;;;;;;1999.90;999.90;;;;;;;7.58;100.00;94428.53;5013531;28;20325;-65
2022/12/25 06:11:44;;;;;;;1999.90;999.90;;;;;;;7.56;100.00;94417.31;5014020;28;20261;-62
2022/12/25 06:14:13;;;;;;;1999.90;999.90;;;;;;;7.54;100.00;94421.63;5013368;28;20201;-61
2022/12/25 06:16:39;;;;;;;1999.90;999.90;;;;;;;7.52;100.00;94422.03;5012846;28;20178;-61
2022/12/25 06:19:04;;;;;;;1999.90;999.90;;;;;;;7.53;100.00;94417.34;5013311;28;20185;-61
2022/12/25 06:21:30;;;;;;;1999.90;999.90;;;;;;;7.54;100.00;94418.91;5012787;28;20592;-61
2022/12/25 06:23:55;;;;;;;1999.90;999.90;;;;;;;7.54;100.00;94410.75;5012997;28;20214;-61
2022/12/25 06:26:21;;;;;;;1999.90;999.90;;;;;;;7.53;100.00;94409.97;5013267;28;20194;-69
2022/12/25 06:28:46;;;;;;;1999.90;999.90;;;;;;;7.50;100.00;94399.16;5013396;28;20208;-59
2022/12/25 06:31:14;;;;;;;1999.90;999.90;;;;;;;7.51;100.00;94393.31;5013206;28;20274;-59
2022/12/25 06:33:41;;;;;;;1999.90;999.90;;;;;;;7.50;100.00;94380.91;5012993;28;20180;-59
2022/12/25 06:36:18;;;;;;;1999.90;999.90;;;;;;;7.54;100.00;94370.75;5013184;28;20209;-59
2022/12/25 06:38:44;;;;;;;1999.90;999.90;;;;;;;7.55;100.00;94377.75;5013070;28;20189;-60
2022/12/25 06:41:12;;;;;;;1999.90;999.90;;;;;;;7.55;100.00;94374.25;5016177;28;20172;-60
2022/12/25 06:43:38;;;;;;;1999.90;999.90;;;;;;;7.56;100.00;94368.41;5017626;28;20214;-61
2022/12/25 06:46:08;;;;;;;1999.90;999.90;;;;;;;7.55;100.00;94361.44;5016900;28;20185;-61
2022/12/25 06:48:35;;;;;;;1999.90;999.90;;;;;;;7.57;100.00;94363.75;5017098;28;20182;-66
2022/12/25 06:51:02;;;;;;;1999.90;999.90;;;;;;;7.56;100.00;94354.84;5016401;28;20175;-66
2022/12/25 06:53:28;;;;;;;1999.90;999.90;;;;;;;7.56;100.00;94362.97;5016577;28;20320;-65
2022/12/25 06:56:04;;;;;;;1999.90;999.90;;;;;;;7.57;100.00;94353.66;5015987;28;20269;-66
2022/12/25 06:58:29;;;;;;;1999.90;999.90;;;;;;;7.55;100.00;94345.16;5016970;28;20181;-66
2022/12/25 07:00:54;;;;;;;1999.90;999.90;;;;;;;7.61;100.00;94353.63;5015875;28;20182;-65
2022/12/25 07:03:21;;;;;;;1999.90;999.90;;;;;;;7.62;100.00;94352.44;5016200;28;20255;-65
2022/12/25 07:05:46;;;;;;;1999.90;999.90;;;;;;;7.64;100.00;94391.59;5015762;28;20317;-62
2022/12/25 07:08:12;;;;;;;1999.90;999.90;;;;;;;7.65;100.00;94393.13;5016216;28;20268;-61
2022/12/25 07:10:38;;;;;;;1999.90;999.90;;;;;;;7.65;100.00;94395.84;5016319;28;20182;-60
2022/12/25 07:13:03;;;;;;;1999.90;999.90;;;;;;;7.70;100.00;94384.53;5015960;28;20194;-60
2022/12/25 07:15:28;;;;;;;1999.90;999.90;;;;;;;7.69;100.00;94382.22;5016482;28;20179;-62
2022/12/25 07:17:54;;;;;;;1999.90;999.90;;;;;;;7.69;100.00;94372.13;5016220;28;20195;-60
2022/12/25 07:20:19;;;;;;;1999.90;999.90;;;;;;;7.75;100.00;94378.63;5015878;28;20172;-71
2022/12/25 07:22:44;;;;;;;1999.90;999.90;;;;;;;7.76;100.00;94379.41;5015416;28;20284;-61
2022/12/25 07:25:10;;;;;;;1999.90;999.90;;;;;;;7.81;100.00;94371.56;5016058;28;20182;-59
2022/12/25 07:27:35;;;;;;;1999.90;999.90;;;;;;;7.85;100.00;94380.44;5015466;28;20179;-59
2022/12/25 07:30:00;;;;;;;1999.90;999.90;;;;;;;7.95;100.00;94376.78;5015973;28;20178;-60
2022/12/25 07:32:29;;;;;;;1999.90;999.90;;;;;;;8.01;100.00;94382.53;5015610;28;20229;-60
2022/12/25 07:34:54;;;;;;;1999.90;999.90;;;;;;;8.06;100.00;94385.56;5015646;28;20171;-61
2022/12/25 07:37:20;;;;;;;1999.90;999.90;;;;;;;8.29;100.00;94385.59;5016405;28;20305;-61
2022/12/25 07:39:45;;;;;;;1999.90;999.90;;;;;;;8.74;100.00;94381.34;5015609;28;20185;-60
2022/12/25 07:42:10;;;;;;;1999.90;999.90;;;;;;;8.98;100.00;94401.91;5016005;28;20226;-63
2022/12/25 07:44:36;;;;;;;1999.90;999.90;;;;;;;9.30;100.00;94434.78;5015352;28;20237;-63
2022/12/25 07:47:01;;;;;;;1999.90;999.90;;;;;;;9.62;100.00;94494.84;5015192;28;20187;-64
2022/12/25 07:49:26;;;;;;;1999.90;999.90;;;;;;;9.89;100.00;94580.03;5015338;28;20249;-63
2022/12/25 07:51:52;;;;;;;1999.90;999.90;;;;;;;10.54;100.00;94716.81;5014848;28;20211;-64
2022/12/25 07:54:17;;;;;;;1999.90;999.90;;;;;;;10.69;100.00;94854.59;5015359;28;20171;-64
2022/12/25 07:56:42;;;;;;;1999.90;999.90;;;;;;;10.85;100.00;94977.63;5015304;28;20198;-64
2022/12/25 07:59:08;;;;;;;1999.90;999.90;;;;;;;11.07;100.00;95071.75;5015189;28;20191;-63
2022/12/25 08:01:33;;;;;;;1999.90;999.90;;;;;;;11.41;100.00;95140.69;5015273;28;20171;-63
2022/12/25 08:04:00;;;;;;;1999.90;999.90;;;;;;;11.65;100.00;95210.69;5016044;28;20300;-63
2022/12/25 08:06:30;;;;;;;1999.90;999.90;;;;;;;11.82;100.00;95275.28;5014607;28;20232;-64
2022/12/25 08:09:11;;;;;;;1999.90;999.90;;;;;;;12.22;100.00;95313.38;5015467;28;20179;-64
2022/12/25 08:11:37;;;;;;;1999.90;999.90;;;;;;;12.54;100.00;95351.19;5015647;28;20171;-63
2022/12/25 08:14:07;;;;;;;1999.90;999.90;;;;;;;12.82;100.00;95369.91;5014477;28;20171;-62
2022/12/25 08:16:33;;;;;;;1999.90;999.90;;;;;;;12.81;100.00;95376.56;5014858;28;20209;-66
2022/12/25 08:19:02;;;;;;;1999.90;999.90;;;;;;;12.88;100.00;95384.66;5015258;28;20207;-65
2022/12/25 08:21:27;;;;;;;1999.90;999.90;;;;;;;13.33;100.00;95394.03;5015279;28;20171;-64
2022/12/25 08:23:53;;;;;;;1999.90;999.90;;;;;;;13.68;100.00;95415.31;5015171;28;20177;-64
2022/12/25 08:26:20;;;;;;;1999.90;999.90;;;;;;;13.62;100.00;95427.97;5015336;28;20178;-64
2022/12/25 08:28:47;;;;;;;1999.90;999.90;;;;;;;13.84;100.00;95433.84;5014365;28;20214;-64
2022/12/25 08:31:19;;;;;;;1999.90;999.90;;;;;;;13.43;100.00;95436.97;5014598;28;20229;-66
2022/12/25 08:33:46;;;;;;;1999.90;999.90;;;;;;;13.16;100.00;95433.56;5014985;28;20209;-61
2022/12/25 08:36:12;;;;;;;1999.90;999.90;;;;;;;13.12;100.00;95432.84;5014561;28;20206;-63
2022/12/25 08:38:38;;;;;;;1999.90;999.90;;;;;;;12.41;100.00;95421.44;5015565;28;20207;-61
2022/12/25 08:41:04;;;;;;;1999.90;999.90;;;;;;;12.12;100.00;95414.81;5014856;28;20175;-62
2022/12/25 08:43:29;;;;;;;1999.90;999.90;;;;;;;11.96;100.00;95407.22;5014958;28;20256;-62
2022/12/25 08:45:55;;;;;;;1999.90;999.90;;;;;;;11.53;100.00;95391.69;5014734;28;20183;-60
2022/12/25 08:48:20;;;;;;;1999.90;999.90;;;;;;;11.37;100.00;95380.56;5014241;28;20254;-61
2022/12/25 08:50:47;;;;;;;1999.90;999.90;;;;;;;11.31;100.00;95360.31;5014410;28;20178;-61
2022/12/25 08:53:13;;;;;;;1999.90;999.90;;;;;;;11.38;100.00;95352.03;5014607;28;20539;-60
2022/12/25 08:55:38;;;;;;;1999.90;999.90;;;;;;;11.99;100.00;95353.63;5014782;28;20178;-63
2022/12/25 08:58:03;;;;;;;1999.90;999.90;;;;;;;12.21;100.00;95357.59;5014221;28;20251;-62
2022/12/25 09:00:29;;;;;;;1999.90;999.90;;;;;;;12.22;100.00;95359.13;5014300;28;20207;-64
2022/12/25 09:02:54;;;;;;;1999.90;999.90;;;;;;;12.29;100.00;95369.97;5013217;28;20220;-62
2022/12/25 09:05:20;;;;;;;1999.90;999.90;;;;;;;12.36;100.00;95370.66;5013876;28;20253;-62
2022/12/25 09:07:45;;;;;;;1999.90;999.90;;;;;;;12.73;100.00;95378.66;5014001;28;20182;-61
2022/12/25 09:10:10;;;;;;;1999.90;999.90;;;;;;;13.00;100.00;95375.84;5014122;28;20211;-62
2022/12/25 09:12:36;;;;;;;1999.90;999.90;;;;;;;13.01;100.00;95383.66;5013722;28;20179;-62
2022/12/25 09:15:02;;;;;;;1999.90;999.90;;;;;;;13.13;100.00;95380.34;5013948;28;20218;-63
2022/12/25 09:17:27;;;;;;;1999.90;999.90;;;;;;;13.41;100.00;95383.72;5013817;28;20259;-62
2022/12/25 09:19:52;;;;;;;1999.90;999.90;;;;;;;13.61;100.00;95393.50;5013874;28;20183;-64
2022/12/25 09:22:18;;;;;;;1999.90;999.90;;;;;;;13.93;100.00;95404.63;5013697;28;20227;-64
2022/12/25 09:24:43;;;;;;;1999.90;999.90;;;;;;;14.02;100.00;95407.56;5013615;28;20182;-65
2022/12/25 09:27:09;;;;;;;1999.90;999.90;;;;;;;14.23;100.00;95407.13;5013487;28;20202;-61
2022/12/25 09:29:34;;;;;;;1999.90;999.90;;;;;;;14.44;100.00;95401.16;5013888;28;20296;-64
2022/12/25 09:31:59;;;;;;;1999.90;999.90;;;;;;;14.38;100.00;95405.63;5013952;28;20176;-66
2022/12/25 09:34:25;;;;;;;1999.90;999.90;;;;;;;14.85;100.00;95409.59;5013752;28;20196;-59
2022/12/25 09:36:50;;;;;;;1999.90;999.90;;;;;;;14.73;100.00;95407.56;5013521;28;20186;-61
2022/12/25 09:39:15;;;;;;;1999.90;999.90;;;;;;;14.79;100.00;95408.56;5014244;28;20182;-62
2022/12/25 09:41:57;;;;;;;1999.90;999.90;;;;;;;14.57;100.00;95407.53;5013527;28;20202;-62
2022/12/25 09:44:45;;;;;;;1999.90;999.90;;;;;;;14.65;100.00;95406.19;5013349;28;20198;-60
2022/12/25 09:47:15;;;;;;;1999.90;999.90;;;;;;;14.96;100.00;95401.09;5014028;28;20178;-60
2022/12/25 09:49:56;;;;;;;1999.90;999.90;;;;;;;15.16;100.00;95402.53;5013663;28;20210;-70
2022/12/25 09:52:36;;;;;;;1999.90;999.90;;;;;;;15.04;100.00;95394.97;5014116;28;20237;-60
2022/12/25 09:55:14;;;;;;;1999.90;999.90;;;;;;;14.58;100.00;95395.34;5013241;28;20168;-61
2022/12/25 09:57:39;;;;;;;1999.90;999.90;;;;;;;14.34;100.00;95385.69;5014611;28;20171;-60
2022/12/25 10:00:17;;;;;;;1999.90;999.90;;;;;;;14.21;100.00;95382.06;5013287;28;20186;-61
2022/12/25 10:03:04;;;;;;;1999.90;999.90;;;;;;;15.05;100.00;95380.00;5013930;28;20257;-60
2022/12/25 10:05:40;;;;;;;1999.90;999.90;;;;;;;15.28;100.00;95387.28;5012987;28;20249;-61
2022/12/25 10:08:28;;;;;;;1999.90;999.90;;;;;;;15.65;100.00;95390.22;5013957;28;20175;-63
2022/12/25 10:11:10;;;;;;;1999.90;999.90;;;;;;;16.14;100.00;95399.81;5013991;28;20274;-70
2022/12/25 10:13:41;;;;;;;1999.90;999.90;;;;;;;15.95;100.00;95409.03;5014926;28;20179;-71
2022/12/25 10:16:19;;;;;;;1999.90;999.90;;;;;;;15.97;100.00;95406.63;5016883;28;20192;-70
2022/12/25 10:19:04;;;;;;;1999.90;999.90;;;;;;;15.76;100.00;95396.22;5017739;28;20175;-71
2022/12/25 10:21:30;;;;;;;1999.90;999.90;;;;;;;16.08;100.00;95390.56;5016632;28;20175;-68
2022/12/25 10:24:09;;;;;;;1999.90;999.90;;;;;;;16.06;100.00;95387.47;5016963;28;20187;-69
2022/12/25 10:26:35;;;;;;;1999.90;999.90;;;;;;;16.03;100.00;95393.09;5016657;28;20175;-73
2022/12/25 10:29:14;;;;;;;1999.90;999.90;;;;;;;15.89;100.00;95397.00;5016840;28;20175;-61
2022/12/25 10:31:43;;;;;;;1999.90;999.90;;;;;;;16.05;100.00;95390.66;5017466;28;20175;-62
2022/12/25 10:34:11;;;;;;;1999.90;999.90;;;;;;;16.16;100.00;95391.91;5016940;28;20179;-60
2022/12/25 10:36:37;;;;;;;1999.90;999.90;;;;;;;15.95;100.00;95381.50;5017296;28;20171;-61
2022/12/25 10:39:02;;;;;;;1999.90;999.90;;;;;;;15.29;100.00;95375.84;5016549;28;20213;-61
2022/12/25 10:41:59;;;;;;;1999.90;999.90;;;;;;;14.77;100.00;95375.25;5016624;28;20178;-61
2022/12/25 10:44:24;;;;;;;1999.90;999.90;;;;;;;14.48;100.00;95363.38;5016606;28;20186;-63
2022/12/25 10:47:00;;;;;;;1999.90;999.90;;;;;;;14.12;100.00;95351.63;5016658;28;20179;-66
2022/12/25 10:49:32;;;;;;;1999.90;999.90;;;;;;;13.98;100.00;95340.97;5015934;28;20179;-67
2022/12/25 10:51:58;;;;;;;1999.90;999.90;;;;;;;13.97;100.00;95327.66;5016638;28;20190;-68
2022/12/25 10:54:32;;;;;;;1999.90;999.90;;;;;;;13.84;100.00;95324.03;5016877;28;20183;-67
2022/12/25 10:57:03;;;;;;;1999.90;999.90;;;;;;;13.64;100.00;95315.84;5016613;28;20175;-68
2022/12/25 10:59:33;;;;;;;1999.90;999.90;;;;;;;13.71;100.00;95307.44;5016218;28;20176;-67
2022/12/25 11:02:13;;;;;;;1999.90;999.90;;;;;;;13.61;100.00;95299.44;5016684;28;20210;-68
2022/12/25 11:04:39;;;;;;;1999.90;999.90;;;;;;;13.63;100.00;95297.84;5015908;28;20218;-61
2022/12/25 11:07:21;;;;;;;1999.90;999.90;;;;;;;13.61;100.00;95293.94;5015857;28;20183;-61
2022/12/25 11:09:55;;;;;;;1999.90;999.90;;;;;;;13.56;100.00;95297.97;5016010;28;20178;-61
2022/12/25 11:12:30;;;;;;;1999.90;999.90;;;;;;;13.57;100.00;95283.06;5016028;28;20259;-61
2022/12/25 11:15:00;;;;;;;1999.90;999.90;;;;;;;13.62;100.00;95285.28;5015936;28;20177;-61
2022/12/25 11:17:26;;;;;;;1999.90;999.90;;;;;;;13.72;100.00;95289.00;5015545;28;20697;-60
2022/12/25 11:19:58;;;;;;;1999.90;999.90;;;;;;;13.69;100.00;95279.66;5015950;28;20258;-68
2022/12/25 11:22:24;;;;;;;1999.90;999.90;;;;;;;13.70;100.00;95281.22;5015664;28;20269;-62
2022/12/25 11:24:50;;;;;;;1999.90;999.90;;;;;;;13.78;100.00;95276.31;5015366;28;20186;-65
2022/12/25 11:27:26;;;;;;;1999.90;999.90;;;;;;;13.79;100.00;95273.16;5015742;28;20179;-63
2022/12/25 11:29:56;;;;;;;1999.90;999.90;;;;;;;13.82;100.00;95277.00;5015579;28;20186;-64
2022/12/25 11:32:31;;;;;;;1999.90;999.90;;;;;;;13.93;100.00;95278.31;5015365;28;20175;-64
2022/12/25 11:34:57;;;;;;;1999.90;999.90;;;;;;;14.04;100.00;95269.84;5016173;28;20236;-64
2022/12/25 11:37:42;;;;;;;1999.90;999.90;;;;;;;14.10;100.00;95263.41;5015450;28;20278;-63
2022/12/25 11:40:16;;;;;;;1999.90;999.90;;;;;;;14.11;100.00;95264.97;5015489;28;20186;-64
2022/12/25 11:42:50;;;;;;;1999.90;999.90;;;;;;;14.13;100.00;95262.53;5015628;28;20207;-62
2022/12/25 11:45:19;;;;;;;1999.90;999.90;;;;;;;14.19;100.00;95263.59;5015950;28;20164;-62
2022/12/25 11:47:50;;;;;;;1999.90;999.90;;;;;;;14.30;100.00;95258.63;5015296;28;20175;-62
2022/12/25 11:50:28;;;;;;;1999.90;999.90;;;;;;;14.30;100.00;95250.38;5015967;28;20168;-62
2022/12/25 11:52:54;;;;;;;1999.90;999.90;;;;;;;14.42;100.00;95260.69;5015733;28;20171;-62
2022/12/25 11:55:41;;;;;;;1999.90;999.90;;;;;;;14.50;100.00;95253.78;5015299;28;20172;-63
2022/12/25 11:58:38;;;;;;;1999.90;999.90;;;;;;;14.50;100.00;95256.53;5015911;28;20172;-64
2022/12/25 12:01:13;;;;;;;1999.90;999.90;;;;;;;14.53;100.00;95246.69;5011301;28;20195;-63
2022/12/25 12:03:41;;;;;;;1999.90;999.90;;;;;;;14.60;100.00;95250.00;5015597;28;20198;-64
2022/12/25 12:06:49;;;;;;;1999.90;999.90;;;;;;;14.62;100.00;95247.59;5014594;28;20230;-63
2022/12/25 12:09:43;;;;;;;1999.90;999.90;;;;;;;14.62;100.00;95225.63;5014571;28;20171;-63
2022/12/25 12:12:25;;;;;;;1999.90;999.90;;;;;;;14.62;100.00;95231.13;5015381;28;20198;-69
2022/12/25 12:15:00;;;;;;;1999.90;999.90;;;;;;;14.65;100.00;95238.50;5015799;28;20168;-68
2022/12/25 12:17:25;;;;;;;1999.90;999.90;;;;;;;14.67;100.00;95241.56;5014784;28;20197;-66
2022/12/25 12:19:51;;;;;;;1999.90;999.90;;;;;;;14.72;100.00;95243.03;5015554;28;20171;-65
2022/12/25 12:22:26;;;;;;;1999.90;999.90;;;;;;;14.83;100.00;95238.03;5013604;28;20209;-64
2022/12/25 12:25:05;;;;;;;1999.90;999.90;;;;;;;14.72;100.00;95246.53;5014059;28;20183;-66
2022/12/25 12:27:36;;;;;;;1999.90;999.90;;;;;;;14.72;100.00;95246.53;5014342;28;20191;-64
2022/12/25 12:30:03;;;;;;;1999.90;999.90;;;;;;;14.76;100.00;95247.25;4997287;28;20175;-63
2022/12/25 12:32:36;;;;;;;1999.90;999.90;;;;;;;14.81;100.00;95232.94;5013671;28;20195;-65
2022/12/25 12:35:12;;;;;;;1999.90;999.90;;;;;;;14.80;100.00;95236.91;5013709;28;20179;-67
2022/12/25 12:37:39;;;;;;;1999.90;999.90;;;;;;;14.73;100.00;95228.84;4997289;28;20183;-64
2022/12/25 12:40:20;;;;;;;1999.90;999.90;;;;;;;14.73;100.00;95220.63;5013425;28;20171;-65
2022/12/25 12:42:49;;;;;;;1999.90;999.90;;;;;;;14.77;100.00;95215.78;5013959;28;20294;-64